createdAt,value
2019-01-30T00:01:58.020Z,14.40
2019-01-30T00:04:24.599Z,15.93
2019-01-30T00:06:51.142Z,15.40
2019-01-30T00:09:17.726Z,13.67
2019-01-30T00:11:44.279Z,15.30
2019-01-30T00:14:10.857Z,14.13
2019-01-30T00:16:37.402Z,15.97
2019-01-30T00:19:04.080Z,16.77
2019-01-30T00:21:30.677Z,15.93
2019-01-30T00:23:57.221Z,16.67
2019-01-30T00:26:23.768Z,15.77
2019-01-30T00:28:50.337Z,16.63
2019-01-30T00:31:16.887Z,16.20
2019-01-30T00:33:43.447Z,14.77
2019-01-30T00:36:10.026Z,15.43
2019-01-30T00:38:36.579Z,14.97
2019-01-30T00:41:03.145Z,13.13
2019-01-30T00:43:29.685Z,14.20
2019-01-30T00:45:56.254Z,12.80
2019-01-30T00:48:22.798Z,13.23
2019-01-30T00:50:49.363Z,13.40
2019-01-30T00:53:15.901Z,14.50
2019-01-30T00:55:42.470Z,14.87
2019-01-30T00:58:09.043Z,14.00
2019-01-30T01:00:35.590Z,14.90
2019-01-30T01:03:02.164Z,12.50
2019-01-30T01:05:28.739Z,13.63
2019-01-30T01:07:55.295Z,13.33
2019-01-30T01:10:22.048Z,14.73
2019-01-30T01:12:48.631Z,13.37
2019-01-30T01:15:15.259Z,14.77
2019-01-30T01:17:41.812Z,13.77
2019-01-30T01:20:10.384Z,15.60
2019-01-30T01:22:36.960Z,14.67
2019-01-30T01:25:04.852Z,13.77
2019-01-30T01:27:31.426Z,12.67
2019-01-30T01:29:57.981Z,12.40
2019-01-30T01:32:24.549Z,12.90
2019-01-30T01:34:51.095Z,13.87
2019-01-30T01:37:17.653Z,12.37
2019-01-30T01:39:44.233Z,14.13
2019-01-30T01:42:10.794Z,13.20
2019-01-30T01:44:37.334Z,13.27
2019-01-30T01:47:03.910Z,13.90
2019-01-30T01:49:30.477Z,11.50
2019-01-30T01:51:57.022Z,13.00
2019-01-30T01:54:23.590Z,12.30
2019-01-30T01:56:50.157Z,12.47
2019-01-30T01:59:16.742Z,12.73
2019-01-30T02:01:43.289Z,12.47
2019-01-30T02:04:09.853Z,12.13
2019-01-30T02:06:36.420Z,12.93
2019-01-30T02:11:38.034Z,13.17
2019-01-30T02:14:04.583Z,12.23
2019-01-30T02:16:31.149Z,13.17
2019-01-30T02:18:57.710Z,12.80
2019-01-30T02:21:24.251Z,11.17
2019-01-30T02:23:50.826Z,12.80
2019-01-30T02:26:17.376Z,13.90
2019-01-30T02:28:43.949Z,11.70
2019-01-30T02:31:10.493Z,12.13
2019-01-30T02:33:37.068Z,12.67
2019-01-30T02:36:03.700Z,13.83
2019-01-30T02:38:30.333Z,12.43
2019-01-30T02:40:56.836Z,11.70
2019-01-30T02:43:23.397Z,12.87
2019-01-30T02:45:49.944Z,13.40
2019-01-30T02:48:16.533Z,12.70
2019-01-30T02:50:43.086Z,13.93
2019-01-30T02:53:09.673Z,12.23
2019-01-30T02:55:36.209Z,12.03
2019-01-30T02:58:02.777Z,11.67
2019-01-30T03:00:30.164Z,12.30
2019-01-30T03:02:56.702Z,12.10
2019-01-30T03:05:23.771Z,12.80
2019-01-30T03:07:50.346Z,11.70
2019-01-30T03:10:17.168Z,12.03
2019-01-30T03:12:43.718Z,12.17
2019-01-30T03:15:11.070Z,12.40
2019-01-30T03:17:37.661Z,10.43
2019-01-30T03:20:05.882Z,11.23
2019-01-30T03:22:32.457Z,11.13
2019-01-30T03:24:59.032Z,11.43
2019-01-30T03:27:25.599Z,10.13
2019-01-30T03:29:52.167Z,11.97
2019-01-30T03:32:18.719Z,11.80
2019-01-30T03:34:45.292Z,11.27
2019-01-30T03:37:11.841Z,11.73
2019-01-30T03:39:38.413Z,11.10
2019-01-30T03:42:04.957Z,12.43
2019-01-30T03:44:31.532Z,12.80
2019-01-30T03:46:58.082Z,12.50
2019-01-30T03:49:24.669Z,12.10
2019-01-30T03:51:51.226Z,11.50
2019-01-30T03:54:17.803Z,11.07
2019-01-30T03:56:44.352Z,12.43
2019-01-30T03:59:10.926Z,10.67
2019-01-30T04:01:37.483Z,13.10
2019-01-30T04:04:04.050Z,11.47
2019-01-30T04:06:30.753Z,11.40
2019-01-30T04:08:57.300Z,11.90
2019-01-30T04:11:23.907Z,12.27
2019-01-30T04:13:50.466Z,12.70
2019-01-30T04:16:17.022Z,12.97
2019-01-30T04:18:43.592Z,13.07
2019-01-30T04:21:10.133Z,12.70
2019-01-30T04:23:36.729Z,12.93
2019-01-30T04:26:03.276Z,12.37
2019-01-30T04:28:29.808Z,13.57
2019-01-30T04:30:56.378Z,13.10
2019-01-30T04:33:22.946Z,12.53
2019-01-30T04:35:49.512Z,12.60
2019-01-30T04:38:16.060Z,14.27
2019-01-30T04:40:42.626Z,12.53
2019-01-30T04:43:09.179Z,13.27
2019-01-30T04:45:35.757Z,13.57
2019-01-30T04:48:02.304Z,14.37
2019-01-30T04:50:28.880Z,14.63
2019-01-30T04:52:55.429Z,13.47
2019-01-30T04:55:22.005Z,12.93
2019-01-30T04:57:48.542Z,12.97
2019-01-30T05:00:17.629Z,14.00
2019-01-30T05:02:44.211Z,13.37
2019-01-30T05:05:10.870Z,12.77
2019-01-30T05:07:37.422Z,13.10
2019-01-30T05:10:05.072Z,13.90
2019-01-30T05:12:31.621Z,13.67
2019-01-30T05:14:58.188Z,13.73
2019-01-30T05:17:24.736Z,13.37
2019-01-30T05:19:51.322Z,13.07
2019-01-30T05:22:17.880Z,14.27
2019-01-30T05:24:44.428Z,13.90
2019-01-30T05:27:10.996Z,13.83
2019-01-30T05:29:37.565Z,13.17
2019-01-30T05:32:04.145Z,14.30
2019-01-30T05:34:30.741Z,13.70
2019-01-30T05:36:57.265Z,14.90
2019-01-30T05:39:23.829Z,13.87
2019-01-30T05:41:50.370Z,14.17
2019-01-30T05:44:16.944Z,15.53
2019-01-30T05:46:43.518Z,14.57
2019-01-30T05:49:10.089Z,14.37
2019-01-30T05:51:36.637Z,13.67
2019-01-30T05:54:03.319Z,14.00
2019-01-30T05:56:29.911Z,13.10
2019-01-30T05:58:56.467Z,14.40
2019-01-30T06:01:23.045Z,12.87
2019-01-30T06:03:49.584Z,12.03
2019-01-30T06:06:16.186Z,13.03
2019-01-30T06:08:42.737Z,13.13
2019-01-30T06:11:12.077Z,12.57
2019-01-30T06:13:37.892Z,14.87
2019-01-30T06:16:04.468Z,13.13
2019-01-30T06:18:31.022Z,14.00
2019-01-30T06:20:57.612Z,13.37
2019-01-30T06:23:24.155Z,13.27
2019-01-30T06:25:50.703Z,14.53
2019-01-30T06:28:17.269Z,13.07
2019-01-30T06:30:43.808Z,13.30
2019-01-30T06:33:10.375Z,13.37
2019-01-30T06:35:36.931Z,14.50
2019-01-30T06:38:03.515Z,13.93
2019-01-30T06:40:31.741Z,13.63
2019-01-30T06:42:58.315Z,14.23
2019-01-30T06:45:24.885Z,13.03
2019-01-30T06:47:51.460Z,13.20
2019-01-30T06:50:18.023Z,13.00
2019-01-30T06:52:44.567Z,13.40
2019-01-30T06:55:11.133Z,12.77
2019-01-30T06:57:37.708Z,13.03
2019-01-30T07:00:15.510Z,12.63
2019-01-30T07:02:42.095Z,12.77
2019-01-30T07:05:08.625Z,11.90
2019-01-30T07:07:35.195Z,12.63
2019-01-30T07:10:02.154Z,11.57
2019-01-30T07:12:28.717Z,11.73
2019-01-30T07:14:55.261Z,11.03
2019-01-30T07:17:21.831Z,11.50
2019-01-30T07:19:48.389Z,12.13
2019-01-30T07:22:14.957Z,11.33
2019-01-30T07:24:41.546Z,11.10
2019-01-30T07:27:08.082Z,10.53
2019-01-30T07:29:34.657Z,10.40
2019-01-30T07:32:01.197Z,10.57
2019-01-30T07:34:27.788Z,10.17
2019-01-30T07:36:54.346Z,8.60
2019-01-30T07:39:20.911Z,10.90
2019-01-30T07:41:47.463Z,10.67
2019-01-30T07:44:14.042Z,9.80
2019-01-30T07:46:40.589Z,9.83
2019-01-30T07:49:07.161Z,8.88
2019-01-30T07:51:33.718Z,9.87
2019-01-30T07:54:00.295Z,9.63
2019-01-30T07:56:28.924Z,9.50
2019-01-30T07:58:55.300Z,8.15
2019-01-30T08:01:22.233Z,8.75
2019-01-30T08:03:48.925Z,8.03
2019-01-30T08:06:15.477Z,8.48
2019-01-30T08:08:42.045Z,8.53
2019-01-30T08:11:08.634Z,8.93
2019-01-30T08:13:35.207Z,8.33
2019-01-30T08:16:01.758Z,8.30
2019-01-30T08:18:28.309Z,8.05
2019-01-30T08:20:54.878Z,7.75
2019-01-30T08:23:21.479Z,7.67
2019-01-30T08:25:48.247Z,8.88
2019-01-30T08:28:15.908Z,7.87
2019-01-30T08:30:43.332Z,7.12
2019-01-30T08:33:10.127Z,7.30
2019-01-30T08:35:36.769Z,7.95
2019-01-30T08:38:03.571Z,7.33
2019-01-30T08:40:30.153Z,7.80
2019-01-30T08:42:56.693Z,7.53
2019-01-30T08:45:25.492Z,7.33
2019-01-30T08:47:52.034Z,8.00
2019-01-30T08:50:18.597Z,7.67
2019-01-30T08:52:45.142Z,7.62
2019-01-30T08:55:11.727Z,7.92
2019-01-30T08:57:38.285Z,7.30
2019-01-30T09:00:07.015Z,7.00
2019-01-30T09:02:33.578Z,6.87
2019-01-30T09:05:00.336Z,7.72
2019-01-30T09:07:26.901Z,7.40
2019-01-30T09:09:53.503Z,7.12
2019-01-30T09:12:20.050Z,7.20
2019-01-30T09:14:46.623Z,7.33
2019-01-30T09:17:13.176Z,6.97
2019-01-30T09:19:39.752Z,7.12
2019-01-30T09:22:06.305Z,7.20
2019-01-30T09:24:32.846Z,7.00
2019-01-30T09:26:59.405Z,7.75
2019-01-30T09:29:25.960Z,7.55
2019-01-30T09:31:52.533Z,7.12
2019-01-30T09:34:19.114Z,7.00
2019-01-30T09:36:45.718Z,7.65
2019-01-30T09:39:12.289Z,6.90
2019-01-30T09:41:38.863Z,7.05
2019-01-30T09:44:06.223Z,6.83
2019-01-30T09:46:32.829Z,7.47
2019-01-30T09:48:59.377Z,7.58
2019-01-30T09:51:25.962Z,7.40
2019-01-30T09:53:52.557Z,6.28
2019-01-30T09:56:19.109Z,7.37
2019-01-30T09:58:45.636Z,7.20
2019-01-30T10:01:12.236Z,7.78
2019-01-30T10:03:38.791Z,7.72
2019-01-30T10:06:05.355Z,6.87
2019-01-30T10:08:31.910Z,7.22
2019-01-30T10:10:58.492Z,7.67
2019-01-30T10:13:25.025Z,8.35
2019-01-30T10:15:51.978Z,7.25
2019-01-30T10:18:18.576Z,7.80
2019-01-30T10:20:46.179Z,6.97
2019-01-30T10:23:12.745Z,7.40
2019-01-30T10:25:39.296Z,7.45
2019-01-30T10:28:15.879Z,7.50
2019-01-30T10:30:36.187Z,7.75
2019-01-30T10:33:02.799Z,7.92
2019-01-30T10:35:29.351Z,8.38
2019-01-30T10:37:55.958Z,8.38
2019-01-30T10:40:22.515Z,8.60
2019-01-30T10:42:49.940Z,8.90
2019-01-30T10:45:16.479Z,9.00
2019-01-30T10:47:43.053Z,9.35
2019-01-30T10:50:11.368Z,8.98
2019-01-30T10:52:37.942Z,8.48
2019-01-30T10:55:06.269Z,9.03
2019-01-30T10:57:32.851Z,9.20
2019-01-30T10:59:59.403Z,8.23
2019-01-30T11:02:25.996Z,9.00
2019-01-30T11:04:52.553Z,9.35
2019-01-30T11:07:19.117Z,9.23
2019-01-30T11:09:45.684Z,8.98
2019-01-30T11:12:12.261Z,9.20
2019-01-30T11:14:41.035Z,8.75
2019-01-30T11:17:08.720Z,9.63
2019-01-30T11:19:35.720Z,8.88
2019-01-30T11:22:02.386Z,10.20
2019-01-30T11:24:28.933Z,9.85
2019-01-30T11:26:55.487Z,9.63
2019-01-30T11:29:22.044Z,9.40
2019-01-30T11:31:48.595Z,9.63
2019-01-30T11:34:15.156Z,9.38
2019-01-30T11:36:41.696Z,9.35
2019-01-30T11:39:08.271Z,10.45
2019-01-30T11:41:34.824Z,9.70
2019-01-30T11:44:01.412Z,9.28
2019-01-30T11:46:27.961Z,9.80
2019-01-30T11:48:56.385Z,10.15
2019-01-30T11:51:22.977Z,9.23
2019-01-30T11:53:49.552Z,9.58
2019-01-30T11:56:16.104Z,9.98
2019-01-30T11:58:42.679Z,9.58
2019-01-30T12:01:09.564Z,9.43
2019-01-30T12:03:36.125Z,10.90
2019-01-30T12:06:02.672Z,10.78
2019-01-30T12:08:29.244Z,11.45
2019-01-30T12:10:55.811Z,9.75
2019-01-30T12:13:22.378Z,9.75
2019-01-30T12:15:48.931Z,9.65
2019-01-30T12:18:15.530Z,10.08
2019-01-30T12:20:42.079Z,9.58
2019-01-30T12:23:08.656Z,10.40
2019-01-30T12:25:35.244Z,10.00
2019-01-30T12:28:01.783Z,11.25
2019-01-30T12:30:28.369Z,10.70
2019-01-30T12:32:54.923Z,10.53
2019-01-30T12:35:21.501Z,10.20
2019-01-30T12:37:48.067Z,10.82
2019-01-30T12:40:16.328Z,11.03
2019-01-30T12:42:42.894Z,11.25
2019-01-30T12:45:13.192Z,10.10
2019-01-30T12:47:39.745Z,10.38
2019-01-30T12:50:07.534Z,10.40
2019-01-30T12:52:34.210Z,10.00
2019-01-30T12:55:00.777Z,10.50
2019-01-30T12:57:27.322Z,10.78
2019-01-30T12:59:53.902Z,10.78
2019-01-30T13:02:20.439Z,9.98
2019-01-30T13:04:47.013Z,9.90
2019-01-30T13:07:13.566Z,10.05
2019-01-30T13:09:40.154Z,10.03
2019-01-30T13:12:06.689Z,10.45
2019-01-30T13:14:33.253Z,10.38
2019-01-30T13:16:59.806Z,10.43
2019-01-30T13:19:26.389Z,11.50
2019-01-30T13:21:52.942Z,10.93
2019-01-30T13:24:19.813Z,10.58
2019-01-30T13:26:46.390Z,10.38
2019-01-30T13:29:12.937Z,11.73
2019-01-30T13:31:39.505Z,11.15
2019-01-30T13:34:06.052Z,11.53
2019-01-30T13:36:32.622Z,10.30
2019-01-30T13:38:59.195Z,11.08
2019-01-30T13:41:25.746Z,10.75
2019-01-30T13:43:52.301Z,12.00
2019-01-30T13:46:18.877Z,12.23
2019-01-30T13:48:45.439Z,11.20
2019-01-30T13:51:12.030Z,12.23
2019-01-30T13:53:38.564Z,12.15
2019-01-30T13:56:05.156Z,10.82
2019-01-30T13:58:31.701Z,12.25
2019-01-30T14:00:58.260Z,11.20
2019-01-30T14:03:24.804Z,13.15
2019-01-30T14:05:51.397Z,11.53
2019-01-30T14:08:17.938Z,11.95
2019-01-30T14:10:44.511Z,12.37
2019-01-30T14:13:11.081Z,11.50
2019-01-30T14:15:37.706Z,11.70
2019-01-30T14:18:04.477Z,11.75
2019-01-30T14:20:31.032Z,11.08
2019-01-30T14:22:57.601Z,12.05
2019-01-30T14:25:24.154Z,11.60
2019-01-30T14:27:50.735Z,11.70
2019-01-30T14:30:25.141Z,12.18
2019-01-30T14:32:51.695Z,12.90
2019-01-30T14:35:18.602Z,11.05
2019-01-30T14:37:45.181Z,11.43
2019-01-30T14:40:12.173Z,11.40
2019-01-30T14:42:39.090Z,11.70
2019-01-30T14:45:07.438Z,11.57
2019-01-30T14:47:33.988Z,11.18
2019-01-30T14:50:00.630Z,11.33
2019-01-30T14:52:27.189Z,11.38
2019-01-30T14:54:53.754Z,13.20
2019-01-30T14:57:20.316Z,13.83
2019-01-30T14:59:46.870Z,11.40
2019-01-30T15:02:13.479Z,10.85
2019-01-30T15:04:40.011Z,11.70
2019-01-30T15:07:06.582Z,10.40
2019-01-30T15:09:33.156Z,11.10
2019-01-30T15:11:59.728Z,11.25
2019-01-30T15:14:26.234Z,11.22
2019-01-30T15:16:52.854Z,11.55
2019-01-30T15:19:19.387Z,11.15
2019-01-30T15:21:45.937Z,10.48
2019-01-30T15:24:12.485Z,10.53
2019-01-30T15:26:39.051Z,10.68
2019-01-30T15:29:05.606Z,11.25
2019-01-30T15:31:32.162Z,11.03
2019-01-30T15:33:58.824Z,11.18
2019-01-30T15:36:25.373Z,11.70
2019-01-30T15:38:51.950Z,11.45
2019-01-30T15:41:18.503Z,11.15
2019-01-30T15:43:45.071Z,10.23
2019-01-30T15:46:12.448Z,11.12
2019-01-30T15:48:39.036Z,9.28
2019-01-30T15:51:05.594Z,10.30
2019-01-30T15:53:32.169Z,10.20
2019-01-30T15:55:58.708Z,9.68
2019-01-30T15:58:25.287Z,10.15
2019-01-30T16:01:31.308Z,10.32
2019-01-30T16:03:57.891Z,11.45
2019-01-30T16:06:24.452Z,10.05
2019-01-30T16:08:50.706Z,10.30
2019-01-30T16:11:17.210Z,10.68
2019-01-30T16:13:43.772Z,10.95
2019-01-30T16:16:10.327Z,10.50
2019-01-30T16:18:36.899Z,10.03
2019-01-30T16:21:03.452Z,9.68
2019-01-30T16:23:30.048Z,9.45
2019-01-30T16:25:56.587Z,10.88
2019-01-30T16:28:23.162Z,10.20
2019-01-30T16:30:49.715Z,11.30
2019-01-30T16:33:16.395Z,10.78
2019-01-30T16:35:42.939Z,10.03
2019-01-30T16:38:09.509Z,10.13
2019-01-30T16:40:36.076Z,11.38
2019-01-30T16:43:03.045Z,10.75
2019-01-30T16:45:29.626Z,12.07
2019-01-30T16:47:56.189Z,11.20
2019-01-30T16:50:22.731Z,10.88
2019-01-30T16:52:49.289Z,11.45
2019-01-30T16:55:16.349Z,11.78
2019-01-30T16:57:42.999Z,11.12
2019-01-30T17:00:15.996Z,10.82
2019-01-30T17:02:42.554Z,10.30
2019-01-30T17:05:11.123Z,10.40
2019-01-30T17:07:37.676Z,10.03
2019-01-30T17:10:06.230Z,9.70
2019-01-30T17:12:32.784Z,9.55
2019-01-30T17:14:59.356Z,10.32
2019-01-30T17:17:25.911Z,10.60
2019-01-30T17:19:52.481Z,11.25
2019-01-30T17:22:19.034Z,12.13
2019-01-30T17:24:45.772Z,10.95
2019-01-30T17:27:12.318Z,9.68
2019-01-30T17:29:38.898Z,10.08
2019-01-30T17:32:05.443Z,9.93
2019-01-30T17:34:32.010Z,10.03
2019-01-30T17:36:58.570Z,10.03
2019-01-30T17:39:25.249Z,11.10
2019-01-30T17:41:51.813Z,10.75
2019-01-30T17:44:18.394Z,10.78
2019-01-30T17:46:44.940Z,9.85
2019-01-30T17:49:11.510Z,10.18
2019-01-30T17:51:38.086Z,9.78
2019-01-30T17:54:04.662Z,10.43
2019-01-30T17:56:31.207Z,8.83
2019-01-30T17:58:57.989Z,10.50
2019-01-30T18:01:24.544Z,10.28
2019-01-30T18:03:51.090Z,10.18
2019-01-30T18:06:17.665Z,11.28
2019-01-30T18:08:44.227Z,9.48
2019-01-30T18:11:10.911Z,10.43
2019-01-30T18:13:37.457Z,12.10
2019-01-30T18:16:04.022Z,10.45
2019-01-30T18:18:30.573Z,11.38
2019-01-30T18:20:57.143Z,11.10
2019-01-30T18:23:24.101Z,10.93
2019-01-30T18:25:50.679Z,11.35
2019-01-30T18:28:17.245Z,10.88
2019-01-30T18:30:43.811Z,13.32
2019-01-30T18:33:10.412Z,10.90
2019-01-30T18:35:36.978Z,12.33
2019-01-30T18:38:04.494Z,11.50
2019-01-30T18:40:31.084Z,10.78
2019-01-30T18:42:57.644Z,10.70
2019-01-30T18:45:24.427Z,11.08
2019-01-30T18:47:50.955Z,12.07
2019-01-30T18:50:19.487Z,11.68
2019-01-30T18:52:46.030Z,12.68
2019-01-30T18:55:12.614Z,12.33
2019-01-30T18:57:39.281Z,12.45
2019-01-30T19:00:10.847Z,13.03
2019-01-30T19:02:37.398Z,11.00
2019-01-30T19:05:05.228Z,10.23
2019-01-30T19:07:31.804Z,12.28
2019-01-30T19:09:58.377Z,11.43
2019-01-30T19:12:24.951Z,10.13
2019-01-30T19:14:53.169Z,14.73
2019-01-30T19:17:19.727Z,13.88
2019-01-30T19:19:46.259Z,13.65
2019-01-30T19:22:12.835Z,12.23
2019-01-30T19:24:39.380Z,13.93
2019-01-30T19:27:05.990Z,12.53
2019-01-30T19:29:32.896Z,15.13
2019-01-30T19:31:59.582Z,14.30
2019-01-30T19:34:26.127Z,14.03
2019-01-30T19:37:02.940Z,14.10
2019-01-30T19:39:21.161Z,14.20
2019-01-30T19:41:50.227Z,14.70
2019-01-30T19:44:19.140Z,15.08
2019-01-30T19:46:45.704Z,15.38
2019-01-30T19:49:12.267Z,14.25
2019-01-30T19:51:38.826Z,13.75
2019-01-30T19:54:05.392Z,15.05
2019-01-30T19:56:31.958Z,13.70
2019-01-30T19:58:58.507Z,15.00
2019-01-30T20:01:35.726Z,13.28
2019-01-30T20:03:53.584Z,14.20
2019-01-30T20:06:20.141Z,11.73
2019-01-30T20:08:46.688Z,18.62
2019-01-30T20:11:13.302Z,20.82
2019-01-30T20:13:39.884Z,17.00
2019-01-30T20:16:06.482Z,14.95
2019-01-30T20:21:01.787Z,17.25
2019-01-30T20:23:28.330Z,16.90
2019-01-30T20:25:54.908Z,14.63
2019-01-30T20:28:21.452Z,18.45
2019-01-30T20:30:48.025Z,15.38
2019-01-30T20:33:14.595Z,19.07
2019-01-30T20:35:41.154Z,20.20
2019-01-30T20:38:07.724Z,19.15
2019-01-30T20:40:34.281Z,17.87
2019-01-30T20:43:00.822Z,25.08
2019-01-30T20:45:33.908Z,15.18
2019-01-30T20:47:55.850Z,16.85
2019-01-30T20:50:24.487Z,17.92
2019-01-30T20:52:51.057Z,18.12
2019-01-30T20:55:39.135Z,18.45
2019-01-30T20:58:05.826Z,20.35
2019-01-30T21:00:35.336Z,19.55
2019-01-30T21:03:02.465Z,18.52
2019-01-30T21:05:29.041Z,21.90
2019-01-30T21:07:55.687Z,20.20
2019-01-30T21:10:24.710Z,17.95
2019-01-30T21:12:51.276Z,20.37
2019-01-30T21:15:17.845Z,21.77
2019-01-30T21:17:44.411Z,23.75
2019-01-30T21:20:11.389Z,21.23
2019-01-30T21:22:37.959Z,22.85
2019-01-30T21:25:07.596Z,24.47
2019-01-30T21:27:34.176Z,20.60
2019-01-30T21:30:00.723Z,22.27
2019-01-30T21:32:27.276Z,22.25
2019-01-30T21:34:53.815Z,17.85
2019-01-30T21:37:20.685Z,21.35
2019-01-30T21:39:47.436Z,20.60
2019-01-30T21:42:14.054Z,16.70
2019-01-30T21:44:40.608Z,22.82
2019-01-30T21:47:07.151Z,19.73
2019-01-30T21:49:33.840Z,20.62
2019-01-30T21:52:00.380Z,20.60
2019-01-30T21:54:26.947Z,21.40
2019-01-30T21:56:53.502Z,20.27
2019-01-30T21:59:20.083Z,22.77
2019-01-30T22:01:46.625Z,23.55
2019-01-30T22:04:13.195Z,25.60
2019-01-30T22:06:39.746Z,23.27
2019-01-30T22:09:06.530Z,26.30
2019-01-30T22:11:33.095Z,24.92
2019-01-30T22:13:59.686Z,25.17
2019-01-30T22:16:26.265Z,21.80
2019-01-30T22:18:52.818Z,22.75
2019-01-30T22:21:19.391Z,23.98
2019-01-30T22:23:45.956Z,21.52
2019-01-30T22:26:12.520Z,24.63
2019-01-30T22:28:39.085Z,25.32
2019-01-30T22:31:05.634Z,22.87
2019-01-30T22:33:32.215Z,25.50
2019-01-30T22:35:58.762Z,22.37
2019-01-30T22:38:25.370Z,22.20
2019-01-30T22:40:51.904Z,23.80
2019-01-30T22:43:18.469Z,23.90
2019-01-30T22:45:45.023Z,24.98
2019-01-30T22:48:11.590Z,25.70
2019-01-30T22:50:38.136Z,24.43
2019-01-30T22:53:04.696Z,24.47
2019-01-30T22:55:31.268Z,25.70
2019-01-30T22:57:57.830Z,26.57
2019-01-30T23:01:10.632Z,26.15
2019-01-30T23:03:50.544Z,26.62
2019-01-30T23:06:56.991Z,20.00
2019-01-30T23:10:05.653Z,23.30
2019-01-30T23:12:57.120Z,20.55
2019-01-30T23:15:30.356Z,27.37
2019-01-30T23:18:46.515Z,25.97
2019-01-30T23:21:17.690Z,22.82
2019-01-30T23:24:44.538Z,29.27
2019-01-30T23:27:19.040Z,25.32
2019-01-30T23:30:51.681Z,26.80
2019-01-30T23:33:32.811Z,30.20
2019-01-30T23:36:32.511Z,33.15
2019-01-30T23:39:41.100Z,33.53
2019-01-30T23:42:38.749Z,32.48
2019-01-30T23:45:43.577Z,31.48
2019-01-30T23:48:54.767Z,32.88
2019-01-30T23:52:06.799Z,34.03
2019-01-30T23:55:24.471Z,29.42
2019-01-30T23:58:23.049Z,36.80
